Stephen L. — WDE7070 — position and weather

sailwx.info

Track history (hours):
 
Tides and Currents Weather Stations Pressure Air Temp Water Temp Dewpoint Dewpoint Depression Visibility Wind Speed Wind Dir Waves Ship Positions

Stephen L.

Owner: TRIPLE S MARINE, LLC, MORGAN CITY, LA. More information available from US FCC via Universal Licensing System and Coast Guard Vessel Documentation Center.

Last reported at 2018-Jan-12 14:59 UTC. Time now 2018-Jan-22 02:51 UTC.
Position N 29°32' W 090°51'.
Warning: this ship's position is 9 days out of date.

Length 20 m.

Type: Ship. MMSI: 367388580.

Date/timePositionNaut miles runAvg speedWind from/ knotsBaromVisibWave heightAir tempDewpointWater temp
2018-Jan-12 14:59N 29°32' W 090°51'3 6.4
2018-Jan-12 14:30N 29°33' W 090°54'3 0.1
2018-Jan-11 04:33N 29°34' W 090°57'1 5.5
2018-Jan-11 04:22N 29°34' W 090°56'4 5.6
2018-Jan-11 03:39N 29°32' W 090°52'1 5.7
2018-Jan-11 03:30N 29°32' W 090°51'4 7.0
2018-Jan-11 03:00N 29°32' W 090°47'3 6.2
2018-Jan-11 02:30N 29°34' W 090°44'3 5.9
2018-Jan-11 02:00N 29°37' W 090°42'3 6.5
2018-Jan-11 01:30N 29°36' W 090°39'4 6.9
2018-Jan-11 01:00N 29°35' W 090°35'4 7.5
2018-Jan-11 00:30N 29°34' W 090°31'0 0.0
2018-Jan-10 14:15N 29°34' W 090°31'2 6.8
2018-Jan-10 14:00N 29°34' W 090°33'3 6.3
2018-Jan-10 13:29N 29°35' W 090°37'3 6.5
2018-Jan-10 13:00N 29°36' W 090°40'0 0.1
2018-Jan-10 12:26N 29°36' W 090°40'0 0.0
2018-Jan-10 11:59N 29°36' W 090°40'0 0.0
2018-Jan-10 11:30N 29°36' W 090°40'0 0.0
2018-Jan-10 11:00N 29°36' W 090°40'0 0.0
2018-Jan-10 10:19N 29°36' W 090°40'0 0.0
2018-Jan-10 10:00N 29°36' W 090°40'0 0.0
2018-Jan-10 09:29N 29°36' W 090°40'0 0.0
2018-Jan-10 09:00N 29°36' W 090°40'0 0.0
2018-Jan-10 08:24N 29°36' W 090°40'0 0.0
2018-Jan-10 08:00N 29°36' W 090°40'0 0.0
2018-Jan-10 07:30N 29°36' W 090°40'0 0.0
2018-Jan-10 07:00N 29°36' W 090°40'0 0.0
2018-Jan-10 06:30N 29°36' W 090°40'0 0.0
2018-Jan-10 06:00N 29°36' W 090°40'0 0.0
2018-Jan-10 05:30N 29°36' W 090°40'0 0.0
2018-Jan-10 05:00N 29°36' W 090°40'0 0.0
2018-Jan-10 04:30N 29°36' W 090°40'2 3.1
2018-Jan-10 04:00N 29°37' W 090°42'1 2.6
2018-Jan-10 03:30N 29°36' W 090°43'3 5.1
2018-Jan-10 03:00N 29°34' W 090°45'3 5.1
2018-Jan-10 02:30N 29°32' W 090°47'3 6.1
2018-Jan-10 02:00N 29°32' W 090°50'6 0.3
2018-Jan-09 08:02N 29°34' W 090°57'0 7.9
2018-Jan-09 08:00N 29°34' W 090°57'5 7.7
2018-Jan-09 07:21N 29°32' W 090°51'3 7.9
2018-Jan-09 07:00N 29°32' W 090°48'3 6.6
2018-Jan-09 06:30N 29°34' W 090°45'3 5.9
2018-Jan-09 06:01N 29°36' W 090°43'3 5.2
2018-Jan-09 05:30N 29°36' W 090°40'3 6.8
2018-Jan-09 05:00N 29°35' W 090°36'0 0.3
2018-Jan-09 04:30N 29°35' W 090°36'1 2.6
2018-Jan-09 04:01N 29°35' W 090°37'3 6.1
2018-Jan-09 03:31N 29°36' W 090°40'2 3.8
2018-Jan-09 03:00N 29°36' W 090°43'2 3.3
2018-Jan-09 02:31N 29°34' W 090°43'0 1.0
2018-Jan-09 02:00N 29°34' W 090°43'2 4.0
2018-Jan-09 01:30N 29°33' W 090°45'3 5.6
2018-Jan-09 01:00N 29°32' W 090°48'4 6.5
2018-Jan-09 00:25N 29°32' W 090°53'  
2018-Jan-03 21:33N 29°34' W 090°56'1 6.5
2018-Jan-03 21:27N 29°34' W 090°55'4 6.2
2018-Jan-03 20:50N 29°32' W 090°51'2 6.1
2018-Jan-03 20:30N 29°32' W 090°49'3 5.7
2018-Jan-03 20:00N 29°32' W 090°46'3 5.3
2018-Jan-03 19:30N 29°34' W 090°43'3 5.9
2018-Jan-03 19:00N 29°37' W 090°42'3 6.0
2018-Jan-03 18:30N 29°36' W 090°39'3 5.8
2018-Jan-03 18:00N 29°35' W 090°36'4 5.3
2018-Jan-03 17:18N 29°34' W 090°32'0 0.7
2018-Jan-03 16:57N 29°33' W 090°32'0 0.0
2018-Jan-02 21:40N 29°33' W 090°32'0 1.6
2018-Jan-02 21:30N 29°34' W 090°32'  
Track history (hours):
 
Tides and Currents Weather Stations Pressure Air Temp Water Temp Dewpoint Dewpoint Depression Visibility Wind Speed Wind Dir Waves Ship Positions

Stephen L.

Owner: TRIPLE S MARINE, LLC, MORGAN CITY, LA. More information available from US FCC via Universal Licensing System and Coast Guard Vessel Documentation Center.

Last reported at 2018-Jan-12 14:59 UTC. Time now 2018-Jan-22 02:51 UTC.
Position N 29°32' W 090°51'.
Warning: this ship's position is 9 days out of date.

Length 20 m.

Type: Ship. MMSI: 367388580.

Date/timePositionNaut miles runAvg speedWind from/ knotsBaromVisibWave heightAir tempDewpointWater temp
2018-Jan-12 14:59N 29°32' W 090°51'3 6.4
2018-Jan-12 14:30N 29°33' W 090°54'3 0.1
2018-Jan-11 04:33N 29°34' W 090°57'1 5.5
2018-Jan-11 04:22N 29°34' W 090°56'4 5.6
2018-Jan-11 03:39N 29°32' W 090°52'1 5.7
2018-Jan-11 03:30N 29°32' W 090°51'4 7.0
2018-Jan-11 03:00N 29°32' W 090°47'3 6.2
2018-Jan-11 02:30N 29°34' W 090°44'3 5.9
2018-Jan-11 02:00N 29°37' W 090°42'3 6.5
2018-Jan-11 01:30N 29°36' W 090°39'4 6.9
2018-Jan-11 01:00N 29°35' W 090°35'4 7.5
2018-Jan-11 00:30N 29°34' W 090°31'0 0.0
2018-Jan-10 14:15N 29°34' W 090°31'2 6.8
2018-Jan-10 14:00N 29°34' W 090°33'3 6.3
2018-Jan-10 13:29N 29°35' W 090°37'3 6.5
2018-Jan-10 13:00N 29°36' W 090°40'0 0.1
2018-Jan-10 12:26N 29°36' W 090°40'0 0.0
2018-Jan-10 11:59N 29°36' W 090°40'0 0.0
2018-Jan-10 11:30N 29°36' W 090°40'0 0.0
2018-Jan-10 11:00N 29°36' W 090°40'0 0.0
2018-Jan-10 10:19N 29°36' W 090°40'0 0.0
2018-Jan-10 10:00N 29°36' W 090°40'0 0.0
2018-Jan-10 09:29N 29°36' W 090°40'0 0.0
2018-Jan-10 09:00N 29°36' W 090°40'0 0.0
2018-Jan-10 08:24N 29°36' W 090°40'0 0.0
2018-Jan-10 08:00N 29°36' W 090°40'0 0.0
2018-Jan-10 07:30N 29°36' W 090°40'0 0.0
2018-Jan-10 07:00N 29°36' W 090°40'0 0.0
2018-Jan-10 06:30N 29°36' W 090°40'0 0.0
2018-Jan-10 06:00N 29°36' W 090°40'0 0.0
2018-Jan-10 05:30N 29°36' W 090°40'0 0.0
2018-Jan-10 05:00N 29°36' W 090°40'0 0.0
2018-Jan-10 04:30N 29°36' W 090°40'2 3.1
2018-Jan-10 04:00N 29°37' W 090°42'1 2.6
2018-Jan-10 03:30N 29°36' W 090°43'3 5.1
2018-Jan-10 03:00N 29°34' W 090°45'3 5.1
2018-Jan-10 02:30N 29°32' W 090°47'3 6.1
2018-Jan-10 02:00N 29°32' W 090°50'6 0.3
2018-Jan-09 08:02N 29°34' W 090°57'0 7.9
2018-Jan-09 08:00N 29°34' W 090°57'5 7.7
2018-Jan-09 07:21N 29°32' W 090°51'3 7.9
2018-Jan-09 07:00N 29°32' W 090°48'3 6.6
2018-Jan-09 06:30N 29°34' W 090°45'3 5.9
2018-Jan-09 06:01N 29°36' W 090°43'3 5.2
2018-Jan-09 05:30N 29°36' W 090°40'3 6.8
2018-Jan-09 05:00N 29°35' W 090°36'0 0.3
2018-Jan-09 04:30N 29°35' W 090°36'1 2.6
2018-Jan-09 04:01N 29°35' W 090°37'3 6.1
2018-Jan-09 03:31N 29°36' W 090°40'2 3.8
2018-Jan-09 03:00N 29°36' W 090°43'2 3.3
2018-Jan-09 02:31N 29°34' W 090°43'0 1.0
2018-Jan-09 02:00N 29°34' W 090°43'2 4.0
2018-Jan-09 01:30N 29°33' W 090°45'3 5.6
2018-Jan-09 01:00N 29°32' W 090°48'4 6.5
2018-Jan-09 00:25N 29°32' W 090°53'  
2018-Jan-03 21:33N 29°34' W 090°56'1 6.5
2018-Jan-03 21:27N 29°34' W 090°55'4 6.2
2018-Jan-03 20:50N 29°32' W 090°51'2 6.1
2018-Jan-03 20:30N 29°32' W 090°49'3 5.7
2018-Jan-03 20:00N 29°32' W 090°46'3 5.3
2018-Jan-03 19:30N 29°34' W 090°43'3 5.9
2018-Jan-03 19:00N 29°37' W 090°42'3 6.0
2018-Jan-03 18:30N 29°36' W 090°39'3 5.8
2018-Jan-03 18:00N 29°35' W 090°36'4 5.3
2018-Jan-03 17:18N 29°34' W 090°32'0 0.7
2018-Jan-03 16:57N 29°33' W 090°32'0 0.0
2018-Jan-02 21:40N 29°33' W 090°32'0 1.6
2018-Jan-02 21:30N 29°34' W 090°32'  

Dump ship's entire track history